Time;durP1;ratioP1;P1;durP2;ratioP2;P2;SDS_P1;SDS_P2;PMS_P1;PMS_P2;Temp;Humidity;BMP_temperature;BMP_pressure;BME280_temperature;BME280_humidity;BME280_pressure;Samples;Min_cycle;Max_cycle;Signal;HPM_P1;HPM_P2
2022/09/12 00:00:28;;;;;;;9.95;5.70;;;14.10;99.90;;;;;;5093642;28;20047;-74
2022/09/12 00:02:54;;;;;;;11.63;6.15;;;14.10;99.90;;;;;;5093647;28;20507;-72
2022/09/12 00:05:21;;;;;;;10.98;6.07;;;14.10;99.90;;;;;;5093668;28;20040;-70
2022/09/12 00:07:47;;;;;;;12.15;6.32;;;14.10;99.90;;;;;;5093737;28;20109;-71
2022/09/12 00:10:13;;;;;;;11.07;5.53;;;14.00;99.90;;;;;;5093078;28;20471;-72
2022/09/12 00:12:39;;;;;;;11.18;5.63;;;14.00;99.90;;;;;;5092900;28;20040;-73
2022/09/12 00:15:06;;;;;;;10.88;5.60;;;14.00;99.90;;;;;;5093441;28;20051;-72
2022/09/12 00:17:35;;;;;;;10.80;5.70;;;14.00;99.90;;;;;;5093504;28;20040;-73
2022/09/12 00:20:02;;;;;;;9.55;5.25;;;14.00;99.90;;;;;;5093254;28;20510;-71
2022/09/12 00:22:27;;;;;;;11.43;5.47;;;13.90;99.90;;;;;;5093454;28;20040;-72
2022/09/12 00:24:53;;;;;;;10.10;5.72;;;13.90;99.90;;;;;;5093103;28;20032;-71
2022/09/12 00:27:18;;;;;;;11.18;5.80;;;13.90;99.90;;;;;;5075130;28;20125;-72
2022/09/12 00:29:44;;;;;;;9.65;5.28;;;13.90;99.90;;;;;;5093126;28;20054;-73
2022/09/12 00:32:10;;;;;;;11.25;6.00;;;13.90;99.90;;;;;;5093373;28;20040;-72
2022/09/12 00:34:36;;;;;;;10.15;5.47;;;13.90;99.90;;;;;;5093163;28;20105;-72
2022/09/12 00:37:02;;;;;;;10.98;5.93;;;13.80;99.90;;;;;;5093032;28;20050;-72
2022/09/12 00:39:27;;;;;;;10.77;6.05;;;13.80;99.90;;;;;;5074856;28;20052;-76
2022/09/12 00:41:53;;;;;;;11.50;6.07;;;13.80;99.90;;;;;;5092876;28;20089;-72
2022/09/12 00:44:22;;;;;;;12.52;6.32;;;13.70;99.90;;;;;;5074809;28;20094;-72
2022/09/12 00:47:01;;;;;;;11.05;5.93;;;13.70;99.90;;;;;;5093038;28;20039;-72
2022/09/12 00:49:32;;;;;;;11.57;5.97;;;13.70;99.90;;;;;;5092861;28;20088;-72
2022/09/12 00:52:30;;;;;;;11.17;5.73;;;13.70;99.90;;;;;;5074776;28;20056;-73
2022/09/12 00:55:04;;;;;;;10.00;5.30;;;13.60;99.90;;;;;;5010513;28;20308;-70
2022/09/12 00:57:36;;;;;;;10.93;6.10;;;13.70;99.90;;;;;;5010788;28;20128;-73
2022/09/12 01:00:14;;;;;;;10.32;5.80;;;13.60;99.90;;;;;;5010715;28;20145;-73
2022/09/12 01:02:42;;;;;;;11.80;5.57;;;13.60;99.90;;;;;;5010933;28;20433;-72
2022/09/12 01:05:09;;;;;;;10.48;5.70;;;13.50;99.90;;;;;;5010889;28;20061;-71
2022/09/12 01:07:38;;;;;;;12.93;6.78;;;13.50;99.90;;;;;;5010834;28;20512;-72
2022/09/12 01:10:06;;;;;;;12.35;6.03;;;13.50;99.90;;;;;;5010504;28;20092;-72
2022/09/12 01:12:33;;;;;;;11.05;5.68;;;13.50;99.90;;;;;;5010219;28;20575;-69
2022/09/12 01:14:59;;;;;;;11.73;6.30;;;13.40;99.90;;;;;;5010575;28;20125;-72
2022/09/12 01:17:47;;;;;;;11.88;6.05;;;13.40;99.90;;;;;;5010738;28;20601;-71
2022/09/12 01:20:34;;;;;;;10.95;5.97;;;13.40;99.90;;;;;;5010580;28;20085;-72
2022/09/12 01:23:30;;;;;;;11.50;6.25;;;13.40;99.90;;;;;;5011057;28;20109;-72
2022/09/12 01:26:35;;;;;;;11.98;6.15;;;13.30;99.90;;;;;;5013922;28;20060;-72
2022/09/12 01:29:34;;;;;;;11.55;5.68;;;13.30;99.90;;;;;;5014400;28;20077;-72
2022/09/12 01:32:21;;;;;;;12.43;6.72;;;13.30;99.90;;;;;;5064700;28;20052;-74
2022/09/12 01:34:57;;;;;;;10.70;6.28;;;13.30;99.90;;;;;;5096632;28;20044;-72
2022/09/12 01:37:41;;;;;;;12.88;6.40;;;13.20;99.90;;;;;;5096533;28;20098;-72
2022/09/12 01:40:22;;;;;;;11.25;6.10;;;13.20;99.90;;;;;;5078114;28;20055;-74
2022/09/12 01:43:17;;;;;;;14.00;6.63;;;13.20;99.90;;;;;;5096112;28;20115;-72
2022/09/12 01:45:52;;;;;;;12.25;6.43;;;13.20;99.90;;;;;;5096452;28;20040;-70
2022/09/12 01:48:34;;;;;;;10.73;6.28;;;13.10;99.90;;;;;;5095880;28;20050;-74
2022/09/12 01:51:10;;;;;;;;;;;13.10;99.90;;;;;;5096717;28;20745;-72
2022/09/12 01:53:41;;;;;;;10.77;6.22;;;13.10;99.90;;;;;;5096001;28;19927;-69
2022/09/12 01:56:21;;;;;;;12.52;6.55;;;13.10;99.90;;;;;;5096155;28;20039;-74
2022/09/12 01:59:04;;;;;;;12.95;6.95;;;13.10;99.90;;;;;;5095506;28;20411;-72
2022/09/12 02:01:45;;;;;;;13.73;6.90;;;13.10;99.90;;;;;;5096348;28;20097;-70
2022/09/12 02:04:24;;;;;;;13.10;7.00;;;13.10;99.90;;;;;;5096008;28;20048;-74
2022/09/12 02:07:17;;;;;;;14.38;7.30;;;13.00;99.90;;;;;;5095831;28;20052;-72
2022/09/12 02:09:55;;;;;;;14.20;6.97;;;13.00;99.90;;;;;;5077793;28;20055;-72
2022/09/12 02:12:26;;;;;;;11.30;6.47;;;12.90;99.90;;;;;;5095655;28;20044;-72
2022/09/12 02:15:02;;;;;;;13.15;6.97;;;12.90;99.90;;;;;;5095720;28;20048;-73
2022/09/12 02:17:33;;;;;;;12.85;6.95;;;12.90;99.90;;;;;;5077512;28;20055;-73
2022/09/12 02:20:07;;;;;;;12.88;7.35;;;12.90;99.90;;;;;;5095566;28;20553;-73
2022/09/12 02:22:36;;;;;;;13.00;7.60;;;12.90;99.90;;;;;;5095484;28;20039;-73
2022/09/12 02:25:04;;;;;;;12.98;7.70;;;12.90;99.90;;;;;;5095581;28;20048;-71
2022/09/12 02:28:08;;;;;;;14.18;8.30;;;12.80;99.90;;;;;;5095586;28;20059;-73
2022/09/12 02:30:42;;;;;;;14.15;7.85;;;12.80;99.90;;;;;;5036424;28;20072;-72
2022/09/12 02:33:22;;;;;;;13.52;7.35;;;12.80;99.90;;;;;;5053020;28;20104;-74
2022/09/12 02:35:57;;;;;;;13.25;6.70;;;12.70;99.90;;;;;;5052081;28;20386;-71
2022/09/12 02:38:45;;;;;;;14.27;7.85;;;12.70;99.90;;;;;;5053134;28;20049;-72
2022/09/12 02:41:14;;;;;;;13.77;7.95;;;12.70;99.90;;;;;;5053037;28;20061;-73
2022/09/12 02:43:40;;;;;;;16.52;8.57;;;12.70;99.90;;;;;;5052610;28;20053;-72
2022/09/12 02:46:16;;;;;;;16.45;8.52;;;12.70;99.90;;;;;;5052817;28;20056;-72
2022/09/12 02:48:42;;;;;;;16.35;8.70;;;12.70;99.90;;;;;;5035923;28;20053;-73
2022/09/12 02:51:10;;;;;;;16.75;9.30;;;12.70;99.90;;;;;;5052623;28;20139;-72
2022/09/12 02:53:36;;;;;;;15.75;8.93;;;12.70;99.90;;;;;;5052573;28;20060;-70
2022/09/12 02:56:06;;;;;;;15.50;9.02;;;12.70;99.90;;;;;;5052677;28;20065;-73
2022/09/12 02:58:32;;;;;;;15.02;8.85;;;12.70;99.90;;;;;;5052518;28;20050;-69
2022/09/12 03:01:16;;;;;;;16.40;9.50;;;12.70;99.90;;;;;;5052019;28;20163;-73
2022/09/12 03:04:09;;;;;;;17.50;8.85;;;12.60;99.90;;;;;;5052492;28;20051;-72
2022/09/12 03:07:05;;;;;;;16.55;8.55;;;12.60;99.90;;;;;;5081025;28;20081;-72
2022/09/12 03:09:56;;;;;;;17.15;9.57;;;12.60;99.90;;;;;;5094803;28;20051;-73
2022/09/12 03:12:34;;;;;;;16.02;9.13;;;12.60;99.90;;;;;;5076325;28;20109;-73
2022/09/12 03:15:12;;;;;;;16.45;9.20;;;12.60;99.90;;;;;;5094326;28;20066;-73
2022/09/12 03:18:09;;;;;;;15.68;9.10;;;12.60;99.90;;;;;;5094465;28;20043;-70
2022/09/12 03:21:01;;;;;;;17.35;9.90;;;12.60;99.90;;;;;;5094476;28;20040;-72
2022/09/12 03:23:29;;;;;;;;;;;12.60;99.90;;;;;;5095042;28;20264;-72
2022/09/12 03:26:02;;;;;;;17.48;9.27;;;12.50;99.90;;;;;;5076253;28;19950;-71
2022/09/12 03:28:28;;;;;;;14.93;9.02;;;12.50;99.90;;;;;;5094273;28;20050;-73
2022/09/12 03:30:55;;;;;;;18.40;10.52;;;12.50;99.90;;;;;;5093689;28;20072;-73
2022/09/12 03:33:23;;;;;;;20.23;11.82;;;12.40;99.90;;;;;;5093995;28;20391;-71
2022/09/12 03:35:50;;;;;;;22.02;12.50;;;12.50;99.90;;;;;;5094439;28;20126;-73
2022/09/12 03:38:16;;;;;;;22.60;12.77;;;12.40;99.90;;;;;;5094353;28;20097;-74
2022/09/12 03:40:42;;;;;;;24.20;13.15;;;12.40;99.90;;;;;;5094369;28;20711;-73
2022/09/12 03:43:09;;;;;;;21.23;12.50;;;12.40;99.90;;;;;;5094021;28;20044;-77
2022/09/12 03:45:35;;;;;;;20.33;12.05;;;12.30;99.90;;;;;;5093608;28;20098;-72
2022/09/12 03:48:02;;;;;;;23.85;12.68;;;12.30;99.90;;;;;;5093660;28;20044;-77
2022/09/12 03:50:27;;;;;;;22.90;13.38;;;12.30;99.90;;;;;;5093852;28;20035;-73
2022/09/12 03:52:53;;;;;;;26.27;13.70;;;12.30;99.90;;;;;;5075552;28;20506;-73
2022/09/12 03:55:19;;;;;;;24.17;12.57;;;12.40;99.90;;;;;;5093858;28;20505;-76
2022/09/12 03:57:45;;;;;;;27.42;13.82;;;12.40;99.90;;;;;;5093779;28;20051;-74
2022/09/12 04:00:11;;;;;;;26.27;15.43;;;12.50;99.90;;;;;;5093665;28;20117;-73
2022/09/12 04:02:37;;;;;;;24.98;13.85;;;12.40;99.90;;;;;;5093108;28;20040;-72
2022/09/12 04:05:03;;;;;;;21.70;12.35;;;12.40;99.90;;;;;;5093420;28;20051;-74
2022/09/12 04:07:29;;;;;;;25.25;14.07;;;12.40;99.90;;;;;;5093741;28;20127;-73
2022/09/12 04:09:55;;;;;;;27.77;15.55;;;12.40;99.90;;;;;;5075678;28;20127;-73
2022/09/12 04:12:21;;;;;;;25.13;14.52;;;12.40;99.90;;;;;;5075556;28;20075;-75
2022/09/12 04:14:46;;;;;;;26.42;14.60;;;12.50;99.90;;;;;;5093418;28;20040;-76
2022/09/12 04:17:13;;;;;;;28.90;13.73;;;12.50;99.90;;;;;;5074969;28;20141;-72
2022/09/12 04:19:39;;;;;;;26.45;14.88;;;12.50;99.90;;;;;;5093095;28;20086;-73
2022/09/12 04:22:05;;;;;;;30.42;15.93;;;12.50;99.90;;;;;;5093450;28;20040;-72
2022/09/12 04:24:31;;;;;;;27.75;14.95;;;12.50;99.90;;;;;;5075128;28;20036;-73
2022/09/12 04:26:56;;;;;;;28.40;15.60;;;12.50;99.90;;;;;;5093113;28;20377;-74
2022/09/12 04:29:22;;;;;;;27.23;14.93;;;12.50;99.90;;;;;;5093225;28;20051;-72
2022/09/12 04:31:48;;;;;;;26.40;14.73;;;12.60;99.90;;;;;;5092874;28;20101;-74
2022/09/12 04:34:14;;;;;;;30.98;15.93;;;12.70;99.90;;;;;;5092806;28;20119;-75
2022/09/12 04:36:40;;;;;;;27.02;14.68;;;12.50;99.90;;;;;;5093138;28;20080;-72
2022/09/12 04:39:06;;;;;;;25.52;15.00;;;12.50;99.90;;;;;;5093202;28;20047;-72
2022/09/12 04:41:37;;;;;;;27.15;14.13;;;12.50;99.90;;;;;;5093101;28;20093;-72
2022/09/12 04:44:21;;;;;;;26.52;15.52;;;12.50;99.90;;;;;;5092998;28;20479;-73
2022/09/12 04:46:46;;;;;;;27.27;15.10;;;12.60;99.90;;;;;;5092903;28;20521;-73
2022/09/12 04:49:15;;;;;;;28.52;15.68;;;12.50;99.90;;;;;;5092693;28;20079;-73
2022/09/12 04:51:41;;;;;;;28.05;14.75;;;12.50;99.90;;;;;;5092576;28;20055;-72
2022/09/12 04:54:11;;;;;;;30.85;15.57;;;12.50;99.90;;;;;;5074601;28;20059;-73
2022/09/12 04:56:39;;;;;;;25.52;14.80;;;12.50;99.90;;;;;;5092814;28;20114;-71
2022/09/12 04:59:05;;;;;;;26.52;14.15;;;12.50;99.90;;;;;;5092531;28;20391;-71
2022/09/12 05:01:31;;;;;;;23.90;13.95;;;12.40;99.90;;;;;;5092729;28;20042;-72
2022/09/12 05:03:58;;;;;;;27.42;14.45;;;12.60;99.90;;;;;;5092621;28;20052;-71
2022/09/12 05:06:27;;;;;;;32.42;15.82;;;12.50;99.90;;;;;;5074705;28;20504;-72
2022/09/12 05:08:54;;;;;;;29.35;15.63;;;12.50;99.90;;;;;;5092777;28;20119;-72
2022/09/12 05:11:22;;;;;;;29.00;15.52;;;12.50;99.90;;;;;;5092481;28;20052;-71
2022/09/12 05:13:48;;;;;;;30.80;16.08;;;12.50;99.90;;;;;;5092607;28;20055;-70
2022/09/12 05:16:16;;;;;;;27.52;15.05;;;12.50;99.90;;;;;;5092723;28;20451;-72
2022/09/12 05:18:43;;;;;;;27.45;13.88;;;12.50;99.90;;;;;;5092740;28;20043;-69
2022/09/12 05:21:12;;;;;;;27.63;14.52;;;12.40;99.90;;;;;;5092550;28;20044;-70
2022/09/12 05:23:37;;;;;;;25.35;13.73;;;12.60;99.90;;;;;;5074440;28;20079;-73
2022/09/12 05:26:05;;;;;;;31.88;16.00;;;12.60;99.90;;;;;;5092392;28;20099;-71
2022/09/12 05:28:36;;;;;;;27.88;14.77;;;12.60;99.90;;;;;;5092482;28;20082;-71
2022/09/12 05:31:13;;;;;;;30.40;15.77;;;12.60;99.90;;;;;;5092376;28;20047;-72
2022/09/12 05:33:40;;;;;;;24.73;13.77;;;12.70;99.90;;;;;;5092332;28;20491;-72
2022/09/12 05:36:10;;;;;;;28.42;14.38;;;12.80;99.90;;;;;;5092263;28;20032;-72
2022/09/12 05:38:36;;;;;;;28.63;14.98;;;12.80;99.90;;;;;;5092282;28;20040;-71
2022/09/12 05:41:10;;;;;;;28.02;15.25;;;12.90;99.90;;;;;;5092461;28;20135;-71
2022/09/12 05:43:38;;;;;;;25.88;13.98;;;13.00;99.90;;;;;;5092324;28;20051;-71
2022/09/12 05:46:09;;;;;;;27.88;14.60;;;13.10;99.90;;;;;;5092253;28;20483;-72
2022/09/12 05:48:35;;;;;;;29.77;15.80;;;13.10;99.90;;;;;;5092275;28;20491;-73
2022/09/12 05:51:07;;;;;;;29.73;16.50;;;13.20;99.90;;;;;;5091976;28;20145;-71
2022/09/12 05:53:35;;;;;;;29.52;15.43;;;13.30;99.90;;;;;;5092338;28;20392;-72
2022/09/12 05:56:12;;;;;;;31.00;16.90;;;13.40;99.90;;;;;;5092102;28;20044;-70
2022/09/12 05:58:42;;;;;;;28.83;15.68;;;13.50;99.90;;;;;;5092589;28;20090;-71
2022/09/12 06:01:11;;;;;;;29.85;16.27;;;13.60;99.90;;;;;;5092534;28;20040;-70
2022/09/12 06:04:00;;;;;;;33.65;16.73;;;13.80;99.90;;;;;;5092072;28;20048;-72
2022/09/12 06:06:28;;;;;;;30.77;16.58;;;13.90;99.90;;;;;;5073784;28;20483;-73
2022/09/12 06:08:57;;;;;;;31.35;16.80;;;14.00;99.90;;;;;;5074064;28;20491;-71
2022/09/12 06:11:25;;;;;;;30.83;16.30;;;14.10;99.90;;;;;;5094763;28;20044;-72
2022/09/12 06:13:52;;;;;;;29.70;16.20;;;14.20;99.90;;;;;;5096134;28;20055;-71
2022/09/12 06:16:20;;;;;;;33.75;17.52;;;14.30;99.90;;;;;;5095487;28;20510;-72
2022/09/12 06:18:50;;;;;;;31.15;16.92;;;14.30;99.90;;;;;;5077453;28;20052;-69
2022/09/12 06:21:17;;;;;;;32.92;17.85;;;14.30;99.90;;;;;;5095286;28;20052;-70
2022/09/12 06:23:45;;;;;;;32.22;17.42;;;14.30;99.90;;;;;;5077119;28;20060;-70
2022/09/12 06:26:11;;;;;;;35.40;18.63;;;14.30;99.90;;;;;;5095550;28;20105;-72
2022/09/12 06:28:39;;;;;;;31.52;16.30;;;14.40;99.90;;;;;;5095489;28;20044;-74
2022/09/12 06:31:11;;;;;;;35.78;17.23;;;14.50;99.90;;;;;;5095392;28;20373;-72
2022/09/12 06:33:40;;;;;;;34.60;17.20;;;14.50;99.90;;;;;;5095716;28;20055;-72
2022/09/12 06:36:24;;;;;;;33.90;17.42;;;14.50;99.90;;;;;;5094971;28;20036;-71
2022/09/12 06:38:59;;;;;;;31.70;17.42;;;14.50;99.90;;;;;;5077422;28;20079;-72
2022/09/12 06:41:26;;;;;;;35.90;17.55;;;14.60;99.90;;;;;;5095213;28;20448;-74
2022/09/12 06:43:52;;;;;;;38.33;18.00;;;14.60;99.90;;;;;;5095293;28;20052;-77
2022/09/12 06:46:18;;;;;;;35.42;17.85;;;14.60;99.90;;;;;;5076794;28;20036;-78
2022/09/12 06:48:44;;;;;;;33.25;17.90;;;14.70;99.90;;;;;;5089877;28;20047;-76
2022/09/12 06:51:13;;;;;;;32.08;16.20;;;14.80;99.90;;;;;;5094178;28;20399;-80
2022/09/12 06:53:48;;;;;;;36.65;18.17;;;14.80;99.90;;;;;;5091478;28;20085;-74
2022/09/12 06:56:38;;;;;;;33.28;17.17;;;14.80;99.90;;;;;;4976031;28;20144;-75
2022/09/12 06:59:04;;;;;;;36.72;18.80;;;14.90;99.90;;;;;;4990449;28;20792;-75
2022/09/12 07:01:30;;;;;;;32.92;17.00;;;15.00;99.90;;;;;;4990190;28;20061;-74
2022/09/12 07:04:01;;;;;;;35.25;17.75;;;15.00;99.90;;;;;;4991222;28;20121;-77
2022/09/12 07:06:33;;;;;;;37.15;17.60;;;15.00;99.90;;;;;;4991055;28;20065;-75
2022/09/12 07:09:00;;;;;;;35.85;19.00;;;15.00;99.90;;;;;;4994302;28;20117;-76
2022/09/12 07:11:30;;;;;;;32.67;16.50;;;15.00;99.90;;;;;;4991336;28;20681;-75
2022/09/12 07:13:58;;;;;;;34.50;18.23;;;15.10;99.90;;;;;;4990826;28;20090;-75
2022/09/12 07:16:24;;;;;;;34.95;18.00;;;15.10;99.90;;;;;;4988617;28;20104;-73
2022/09/12 07:18:54;;;;;;;38.10;18.45;;;15.20;99.90;;;;;;4976870;28;20062;-76
2022/09/12 07:21:20;;;;;;;34.95;18.33;;;15.30;99.90;;;;;;4985897;28;20054;-73
2022/09/12 07:23:47;;;;;;;36.67;17.58;;;15.20;99.90;;;;;;4990143;28;20043;-76
2022/09/12 07:26:14;;;;;;;35.47;18.02;;;15.30;99.90;;;;;;4988980;28;20050;-77
2022/09/12 07:28:40;;;;;;;36.05;19.00;;;15.30;99.90;;;;;;4957589;28;20046;-75
2022/09/12 07:31:12;;;;;;;41.08;19.75;;;15.40;99.90;;;;;;5007625;28;20052;-77
2022/09/12 07:33:39;;;;;;;42.42;21.23;;;15.40;99.90;;;;;;5047122;28;20567;-77
2022/09/12 07:36:07;;;;;;;40.55;19.67;;;15.60;99.90;;;;;;5056169;28;20483;-78
2022/09/12 07:38:33;;;;;;;43.05;21.60;;;15.50;99.90;;;;;;5090368;28;20407;-76
2022/09/12 07:41:00;;;;;;;44.33;20.52;;;15.50;99.90;;;;;;5092032;28;20046;-74
2022/09/12 07:43:26;;;;;;;37.72;18.98;;;15.60;99.90;;;;;;5091330;28;20047;-76
2022/09/12 07:45:57;;;;;;;41.10;19.65;;;15.70;99.90;;;;;;5090813;28;20058;-75
2022/09/12 07:48:23;;;;;;;36.90;18.98;;;15.70;99.90;;;;;;5091092;28;20051;-73
2022/09/12 07:50:59;;;;;;;37.17;20.23;;;15.80;99.90;;;;;;5091360;28;20036;-76
2022/09/12 07:53:29;;;;;;;38.60;19.23;;;15.90;99.90;;;;;;5090968;28;20408;-76
2022/09/12 07:55:55;;;;;;;36.63;18.92;;;15.90;99.90;;;;;;5084811;28;20041;-75
2022/09/12 07:58:24;;;;;;;32.95;18.05;;;15.90;99.90;;;;;;5094055;28;20058;-76
2022/09/12 08:00:50;;;;;;;33.05;16.88;;;16.00;99.90;;;;;;5102382;28;20032;-74
2022/09/12 08:03:17;;;;;;;33.63;17.88;;;16.00;99.90;;;;;;5100573;28;20391;-75
2022/09/12 08:05:43;;;;;;;35.00;18.33;;;16.20;99.90;;;;;;5090401;28;20039;-76
2022/09/12 08:08:08;;;;;;;33.00;17.17;;;16.20;99.90;;;;;;5088028;28;20108;-76
2022/09/12 08:10:35;;;;;;;30.30;16.75;;;16.30;99.90;;;;;;5090701;28;20072;-77
2022/09/12 08:13:01;;;;;;;31.88;16.52;;;16.30;99.90;;;;;;5090386;28;20480;-77
2022/09/12 08:15:27;;;;;;;27.00;15.32;;;16.40;99.90;;;;;;5090569;28;20044;-73
2022/09/12 08:17:53;;;;;;;30.65;18.17;;;16.50;99.90;;;;;;5069981;28;20135;-75
2022/09/12 08:20:19;;;;;;;31.02;16.77;;;16.70;99.90;;;;;;5090661;28;20087;-75
2022/09/12 08:22:45;;;;;;;26.90;15.45;;;16.90;99.90;;;;;;5089657;28;20072;-75
2022/09/12 08:25:10;;;;;;;27.52;16.27;;;16.90;99.90;;;;;;5090120;28;20495;-76
2022/09/12 08:27:36;;;;;;;26.48;15.93;;;17.00;99.90;;;;;;5088312;28;20617;-76
2022/09/12 08:30:04;;;;;;;26.02;15.23;;;17.00;99.90;;;;;;5090985;28;20050;-75
2022/09/12 08:32:29;;;;;;;29.17;17.15;;;17.00;99.90;;;;;;5089370;28;20044;-76
2022/09/12 08:34:55;;;;;;;30.75;15.45;;;17.10;99.90;;;;;;5090064;28;20040;-76
2022/09/12 08:37:21;;;;;;;28.52;15.38;;;17.00;99.90;;;;;;5088745;28;20040;-77
2022/09/12 08:39:47;;;;;;;27.67;15.43;;;17.00;99.90;;;;;;5090193;28;20532;-77
2022/09/12 08:42:27;;;;;;;26.38;14.55;;;17.20;99.90;;;;;;5089686;28;20052;-76
2022/09/12 08:45:13;;;;;;;25.63;14.23;;;17.10;99.90;;;;;;5090197;28;20082;-76
2022/09/12 08:47:42;;;;;;;24.60;13.20;;;17.10;99.90;;;;;;5088576;28;20079;-77
2022/09/12 08:50:08;;;;;;;24.92;14.05;;;17.20;99.90;;;;;;5085836;28;20484;-87
2022/09/12 08:52:51;;;;;;;24.17;13.65;;;17.30;99.90;;;;;;5089922;28;20146;-85
2022/09/12 08:55:20;;;;;;;25.38;13.65;;;17.40;99.90;;;;;;5073255;28;20052;-91
2022/09/12 09:46:42;;;;;;;17.40;8.77;;;18.90;99.90;;;;;;5086257;27;20422;-85
2022/09/12 09:49:11;;;;;;;18.00;8.52;;;18.90;99.90;;;;;;5086216;28;20060;-81
2022/09/12 09:51:39;;;;;;;20.60;10.18;;;19.00;99.90;;;;;;5084997;28;20094;-80
2022/09/12 09:54:17;;;;;;;18.63;9.07;;;19.00;99.90;;;;;;5086220;28;20162;-80
2022/09/12 09:56:43;;;;;;;19.05;9.48;;;19.00;99.90;;;;;;5084653;28;20495;-80
2022/09/12 09:59:27;;;;;;;19.88;9.75;;;19.10;99.90;;;;;;5084737;28;20056;-78
2022/09/12 10:02:18;;;;;;;20.58;10.93;;;19.10;99.90;;;;;;5087019;28;20096;-81
2022/09/12 10:04:54;;;;;;;20.48;10.48;;;19.10;99.90;;;;;;5085091;28;20109;-86
2022/09/12 10:07:21;;;;;;;20.63;10.20;;;19.20;99.90;;;;;;5084896;28;20052;-76
2022/09/12 10:10:14;;;;;;;21.45;10.40;;;19.30;99.90;;;;;;5087159;28;20079;-78
2022/09/12 10:12:41;;;;;;;22.13;12.10;;;19.50;99.90;;;;;;5084836;28;20114;-74
2022/09/12 10:15:21;;;;;;;22.08;11.43;;;19.60;99.90;;;;;;5085963;28;20052;-74
2022/09/12 10:17:49;;;;;;;21.42;11.68;;;19.70;99.90;;;;;;5066967;28;20036;-78
2022/09/12 10:20:41;;;;;;;27.85;13.05;;;19.80;99.90;;;;;;5086652;28;20084;-79
2022/09/12 10:23:36;;;;;;;24.88;13.60;;;19.90;99.90;;;;;;5086722;28;20036;-76
2022/09/12 10:26:08;;;;;;;24.85;11.70;;;20.10;99.90;;;;;;5086301;28;20040;-84
2022/09/12 10:28:46;;;;;;;24.92;12.05;;;20.30;99.90;;;;;;5085938;28;20048;-85
2022/09/12 10:31:27;;;;;;;30.95;14.73;;;20.40;99.90;;;;;;5085889;28;20499;-89
2022/09/12 10:33:58;;;;;;;28.75;14.65;;;20.40;99.90;;;;;;5081429;28;20040;-83
2022/09/12 10:36:25;;;;;;;28.55;13.75;;;20.50;99.90;;;;;;5084866;28;20135;-81
2022/09/12 10:38:59;;;;;;;33.17;14.95;;;20.50;99.90;;;;;;5068538;28;20044;-78
2022/09/12 10:41:38;;;;;;;29.10;14.27;;;20.70;99.90;;;;;;5083494;28;20519;-87
2022/09/12 10:44:23;;;;;;;26.80;14.13;;;20.80;99.90;;;;;;5068865;28;20045;-82
2022/09/12 10:46:49;;;;;;;26.25;13.43;;;21.00;99.90;;;;;;5067192;28;20326;-85
2022/09/12 10:49:29;;;;;;;26.85;14.15;;;21.20;99.90;;;;;;5085831;28;20503;-70
2022/09/12 10:51:58;;;;;;;31.48;16.60;;;21.40;99.90;;;;;;5083671;28;20036;-73
2022/09/12 10:54:26;;;;;;;26.63;14.52;;;21.60;99.90;;;;;;5085974;28;20048;-69
2022/09/12 10:57:20;;;;;;;26.23;14.38;;;21.70;99.90;;;;;;5077164;28;20037;-70
2022/09/12 11:00:19;;;;;;;27.52;13.77;;;21.80;99.90;;;;;;5072135;28;20169;-70
2022/09/12 11:02:57;;;;;;;30.92;16.25;;;22.00;99.90;;;;;;5067567;28;20492;-69
2022/09/12 11:05:30;;;;;;;25.40;14.48;;;22.10;99.90;;;;;;5070971;28;20131;-69
2022/09/12 11:08:18;;;;;;;28.08;15.10;;;22.10;99.90;;;;;;5070044;28;20083;-70
2022/09/12 11:11:03;;;;;;;26.38;15.07;;;22.30;99.90;;;;;;5071247;28;20044;-70
2022/09/12 11:13:46;;;;;;;27.63;13.48;;;22.40;99.90;;;;;;5071532;28;20076;-68
2022/09/12 11:16:54;;;;;;;23.70;11.57;;;22.60;99.90;;;;;;5069545;28;20044;-70
2022/09/12 11:19:31;;;;;;;19.70;10.45;;;22.70;99.90;;;;;;5012587;28;20147;-70
2022/09/12 11:22:08;;;;;;;21.42;10.77;;;22.80;99.90;;;;;;5016320;28;20053;-70
2022/09/12 11:24:59;;;;;;;15.90;9.20;;;22.90;99.90;;;;;;5016019;28;20054;-71
2022/09/12 11:27:51;;;;;;;21.50;9.63;;;22.90;99.90;;;;;;4969490;28;20094;-72
2022/09/12 11:30:17;;;;;;;19.03;9.97;;;22.90;99.90;;;;;;4955851;28;20491;-69
2022/09/12 11:33:06;;;;;;;18.17;10.38;;;23.00;99.90;;;;;;4949511;28;20299;-74
2022/09/12 11:35:43;;;;;;;20.83;10.85;;;23.10;99.90;;;;;;4955053;28;20053;-74
2022/09/12 11:38:31;;;;;;;21.40;9.80;;;23.10;99.90;;;;;;4970473;28;20573;-71
2022/09/12 11:41:12;;;;;;;23.15;11.15;;;23.10;99.90;;;;;;4971237;28;20059;-74
2022/09/12 11:43:44;;;;;;;20.15;11.07;;;23.10;99.90;;;;;;4932742;28;20145;-74
2022/09/12 11:46:32;;;;;;;21.83;11.15;;;23.10;99.90;;;;;;4954587;28;20493;-74
2022/09/12 11:49:13;;;;;;;19.13;10.15;;;23.10;99.90;;;;;;4947653;28;20113;-74
2022/09/12 11:51:51;;;;;;;16.88;9.20;;;23.10;99.90;;;;;;4970780;28;20047;-74
2022/09/12 11:54:56;;;;;;;18.02;8.95;;;23.00;99.90;;;;;;5015258;28;20049;-74
2022/09/12 11:57:29;;;;;;;19.23;9.25;;;23.10;99.90;;;;;;5009591;28;20062;-75
2022/09/12 12:00:04;;;;;;;17.23;8.43;;;23.20;99.90;;;;;;5005507;28;20402;-70
2022/09/12 12:02:55;;;;;;;22.52;11.00;;;23.30;99.90;;;;;;5007375;28;20147;-70
2022/09/12 12:05:50;;;;;;;17.42;9.40;;;23.40;99.90;;;;;;5031080;28;20086;-71
2022/09/12 12:08:17;;;;;;;20.63;10.60;;;23.40;99.90;;;;;;5048377;28;20053;-70
2022/09/12 12:10:56;;;;;;;17.70;10.00;;;23.50;99.90;;;;;;5049832;28;20531;-74
2022/09/12 12:13:28;;;;;;;17.73;9.52;;;23.60;99.90;;;;;;5050248;28;20068;-72
2022/09/12 12:15:58;;;;;;;17.90;9.55;;;23.60;99.90;;;;;;5049241;28;20496;-72
2022/09/12 12:18:28;;;;;;;19.45;9.30;;;23.60;99.90;;;;;;5049909;28;20512;-73
2022/09/12 12:20:55;;;;;;;20.23;9.85;;;23.40;99.90;;;;;;5049220;28;20547;-69
2022/09/12 12:23:28;;;;;;;19.40;9.85;;;23.20;99.90;;;;;;5049929;28;20053;-70
2022/09/12 12:26:00;;;;;;;20.88;9.88;;;23.10;99.90;;;;;;5049519;28;20045;-71
2022/09/12 12:28:40;;;;;;;22.75;9.40;;;23.00;99.90;;;;;;5033651;28;20573;-72
2022/09/12 12:31:08;;;;;;;19.90;9.77;;;23.10;99.90;;;;;;5046753;28;20128;-71
2022/09/12 12:33:36;;;;;;;17.55;9.43;;;23.20;99.90;;;;;;5054896;28;20049;-71
2022/09/12 12:36:07;;;;;;;16.73;9.38;;;23.30;99.90;;;;;;5072102;28;20045;-72
2022/09/12 12:38:37;;;;;;;18.40;9.75;;;23.50;99.90;;;;;;5068449;28;20041;-71
2022/09/12 12:41:17;;;;;;;20.88;9.77;;;23.50;99.90;;;;;;5072080;28;20443;-73
2022/09/12 12:43:44;;;;;;;18.13;9.15;;;23.50;99.90;;;;;;5069355;28;20044;-73
2022/09/12 12:46:14;;;;;;;17.58;9.50;;;23.60;99.90;;;;;;5070489;28;20139;-74
2022/09/12 12:49:00;;;;;;;17.17;8.68;;;23.70;99.90;;;;;;5071409;28;20072;-72
2022/09/12 12:51:33;;;;;;;17.40;9.23;;;23.80;99.90;;;;;;5070753;28;20084;-74
2022/09/12 12:54:33;;;;;;;17.80;8.75;;;23.80;99.90;;;;;;5067072;28;20070;-72
2022/09/12 12:57:11;;;;;;;13.50;7.75;;;23.80;99.90;;;;;;5071885;28;20049;-72
2022/09/12 12:59:50;;;;;;;16.67;9.02;;;23.80;99.90;;;;;;5050606;28;20063;-73
2022/09/12 13:02:24;;;;;;;17.17;8.75;;;23.80;99.90;;;;;;5070521;28;20121;-74
2022/09/12 13:04:50;;;;;;;16.40;7.95;;;23.90;99.90;;;;;;5052877;28;20574;-74
2022/09/12 13:07:39;;;;;;;17.40;8.20;;;23.90;99.90;;;;;;5070372;28;20044;-74
2022/09/12 13:10:06;;;;;;;17.23;8.85;;;24.00;99.90;;;;;;5067555;28;20068;-73
2022/09/12 13:12:42;;;;;;;14.25;7.28;;;24.00;99.90;;;;;;5066343;28;20108;-77
2022/09/12 13:15:36;;;;;;;11.95;6.30;;;24.20;99.90;;;;;;5067793;28;20408;-77
2022/09/12 13:18:09;;;;;;;17.23;8.00;;;24.30;99.90;;;;;;5065851;28;20484;-79
2022/09/12 13:20:45;;;;;;;15.85;6.38;;;24.40;99.90;;;;;;5066107;28;20044;-78
2022/09/12 13:23:26;;;;;;;13.02;7.13;;;24.50;99.90;;;;;;5050604;28;20492;-75
2022/09/12 13:25:55;;;;;;;14.73;7.03;;;24.50;99.90;;;;;;5069762;28;20048;-74
2022/09/12 13:28:20;;;;;;;13.07;7.25;;;24.50;99.90;;;;;;5053506;28;20090;-77
2022/09/12 13:31:21;;;;;;;16.20;7.68;;;24.50;99.90;;;;;;5071456;28;20040;-74
2022/09/12 13:33:56;;;;;;;14.75;7.53;;;24.50;99.90;;;;;;5067265;28;20052;-73
2022/09/12 13:37:04;;;;;;;15.32;7.22;;;24.50;99.90;;;;;;5070050;28;20049;-74
2022/09/12 13:39:58;;;;;;;14.02;7.47;;;24.50;99.90;;;;;;4977548;28;20065;-76
2022/09/12 13:42:40;;;;;;;15.50;7.50;;;24.50;99.90;;;;;;4990282;28;20054;-75
2022/09/12 13:45:35;;;;;;;;;;;24.40;99.90;;;;;;4985858;28;20380;-78
2022/09/12 13:48:02;;;;;;;12.98;7.20;;;24.40;99.90;;;;;;4947557;29;19923;-76
2022/09/12 13:50:45;;;;;;;13.43;5.70;;;24.40;99.90;;;;;;4931345;29;20048;-79
2022/09/12 13:53:15;;;;;;;12.02;5.82;;;24.60;99.90;;;;;;4915842;29;20075;-76